createdAt,value
2019-01-31T00:01:56.859Z,19.10
2019-01-31T00:04:55.614Z,19.10
2019-01-31T00:07:55.996Z,19.00
2019-01-31T00:10:47.405Z,19.00
2019-01-31T00:13:35.729Z,19.00
2019-01-31T00:16:12.759Z,18.90
2019-01-31T00:18:50.063Z,18.90
2019-01-31T00:21:44.211Z,18.90
2019-01-31T00:24:21.703Z,18.90
2019-01-31T00:26:53.230Z,18.80
2019-01-31T00:29:29.876Z,18.80
2019-01-31T00:32:19.528Z,18.80
2019-01-31T00:35:06.314Z,18.70
2019-01-31T00:37:43.401Z,18.70
2019-01-31T00:40:18.129Z,18.70
2019-01-31T00:43:01.689Z,18.70
2019-01-31T00:45:36.172Z,18.70
2019-01-31T00:48:07.701Z,18.60
2019-01-31T00:50:45.421Z,18.60
2019-01-31T00:53:22.937Z,18.60
2019-01-31T00:56:03.473Z,18.60
2019-01-31T00:58:43.762Z,18.60
2019-01-31T01:01:27.408Z,18.60
2019-01-31T01:03:59.194Z,18.50
2019-01-31T01:06:39.730Z,18.50
2019-01-31T01:09:33.938Z,18.50
2019-01-31T01:12:05.498Z,18.50
2019-01-31T01:14:49.188Z,18.40
2019-01-31T01:17:21.129Z,18.40
2019-01-31T01:20:01.489Z,18.40
2019-01-31T01:22:38.771Z,18.40
2019-01-31T01:25:19.480Z,18.40
2019-01-31T01:27:53.699Z,18.40
2019-01-31T01:30:50.874Z,18.30
2019-01-31T01:33:22.438Z,18.30
2019-01-31T01:35:56.752Z,18.30
2019-01-31T01:38:52.402Z,18.20
2019-01-31T01:41:41.526Z,18.30
2019-01-31T01:44:34.114Z,18.20
2019-01-31T01:47:17.685Z,18.20
2019-01-31T01:49:49.244Z,18.20
2019-01-31T01:52:20.769Z,18.10
2019-01-31T01:54:58.108Z,18.20
2019-01-31T01:57:44.713Z,18.10
2019-01-31T02:00:31.111Z,18.10
2019-01-31T02:03:14.744Z,18.00
2019-01-31T02:05:55.155Z,18.00
2019-01-31T02:09:01.514Z,18.10
2019-01-31T02:11:59.794Z,18.00
2019-01-31T02:14:59.988Z,18.00
2019-01-31T02:17:34.116Z,18.00
2019-01-31T02:20:29.292Z,17.90
2019-01-31T02:23:12.995Z,17.90
2019-01-31T02:26:16.723Z,17.90
2019-01-31T02:28:54.436Z,17.90
2019-01-31T02:31:28.769Z,17.90
2019-01-31T02:34:29.499Z,17.90
2019-01-31T02:37:06.611Z,17.80
2019-01-31T02:40:05.608Z,17.80
2019-01-31T02:42:49.355Z,17.80
2019-01-31T02:45:45.102Z,17.80
2019-01-31T02:48:34.422Z,17.80
2019-01-31T02:51:17.803Z,17.80
2019-01-31T02:53:58.427Z,17.70
2019-01-31T02:56:47.185Z,17.80
2019-01-31T02:59:21.238Z,17.70
2019-01-31T03:02:05.389Z,17.70
2019-01-31T03:04:39.606Z,17.60
2019-01-31T03:07:17.051Z,17.70
2019-01-31T03:09:54.906Z,17.60
2019-01-31T03:12:30.898Z,17.60
2019-01-31T03:15:14.681Z,17.60
2019-01-31T03:18:02.732Z,17.60
2019-01-31T03:20:36.854Z,17.60
2019-01-31T03:23:25.885Z,17.60
2019-01-31T03:26:03.244Z,17.50
2019-01-31T03:28:40.376Z,17.50
2019-01-31T03:31:20.578Z,17.50
2019-01-31T03:34:27.242Z,17.50
2019-01-31T03:37:11.237Z,17.50
2019-01-31T03:40:07.024Z,17.50
2019-01-31T03:42:43.114Z,17.40
2019-01-31T03:45:20.541Z,17.40
2019-01-31T03:48:24.167Z,17.40
2019-01-31T03:51:13.987Z,17.40
2019-01-31T03:54:10.122Z,17.40
2019-01-31T03:56:44.376Z,17.40
2019-01-31T03:59:18.873Z,17.30
2019-01-31T04:01:56.864Z,17.30
2019-01-31T04:04:37.026Z,17.30
2019-01-31T04:07:05.341Z,17.30
2019-01-31T04:09:33.607Z,17.30
2019-01-31T04:12:01.874Z,17.30
2019-01-31T04:14:30.240Z,17.30
2019-01-31T04:16:58.512Z,17.30
2019-01-31T04:19:26.780Z,17.30
2019-01-31T04:21:55.165Z,17.20
2019-01-31T04:24:23.429Z,17.30
2019-01-31T04:26:51.705Z,17.20
2019-01-31T04:29:20.115Z,17.20
2019-01-31T04:31:48.440Z,17.20
2019-01-31T04:34:16.732Z,17.20
2019-01-31T04:36:45.043Z,17.20
2019-01-31T04:39:13.584Z,17.20
2019-01-31T04:41:41.859Z,17.20
2019-01-31T04:44:10.161Z,17.20
2019-01-31T04:46:38.499Z,17.20
2019-01-31T04:49:06.763Z,17.10
2019-01-31T04:51:35.067Z,17.10
2019-01-31T04:54:03.402Z,17.10
2019-01-31T04:56:31.670Z,17.10
2019-01-31T04:58:59.969Z,17.10
2019-01-31T05:01:28.230Z,17.00
2019-01-31T05:03:56.813Z,17.00
2019-01-31T05:06:25.090Z,17.10
2019-01-31T05:08:53.370Z,17.00
2019-01-31T05:11:21.650Z,17.00
2019-01-31T05:13:49.947Z,17.00
2019-01-31T05:16:18.491Z,17.00
2019-01-31T05:18:46.833Z,16.90
2019-01-31T05:21:15.129Z,16.90
2019-01-31T05:23:43.394Z,16.90
2019-01-31T05:26:11.689Z,16.90
2019-01-31T05:28:40.009Z,16.90
2019-01-31T05:31:08.355Z,16.90
2019-01-31T05:33:36.631Z,16.90
2019-01-31T05:36:04.997Z,16.90
2019-01-31T05:38:33.262Z,16.90
2019-01-31T05:41:01.534Z,16.90
2019-01-31T05:43:29.820Z,16.90
2019-01-31T05:45:58.092Z,16.90
2019-01-31T05:48:26.364Z,16.90
2019-01-31T05:50:54.734Z,16.90
2019-01-31T05:53:23.002Z,16.80
2019-01-31T05:55:51.287Z,16.80
2019-01-31T05:58:19.656Z,16.80
2019-01-31T06:00:47.931Z,16.80
2019-01-31T06:03:16.202Z,16.80
2019-01-31T06:05:44.512Z,16.70
2019-01-31T06:08:13.161Z,16.80
2019-01-31T06:10:41.490Z,16.90
2019-01-31T06:13:09.814Z,17.00
2019-01-31T06:15:38.088Z,17.00
2019-01-31T06:18:06.360Z,17.10
2019-01-31T06:20:34.648Z,17.20
2019-01-31T06:23:02.934Z,17.30
2019-01-31T06:25:31.200Z,17.50
2019-01-31T06:27:59.491Z,17.50
2019-01-31T06:30:27.765Z,17.70
2019-01-31T06:32:56.025Z,17.80
2019-01-31T06:35:24.316Z,17.90
2019-01-31T06:37:52.584Z,18.00
2019-01-31T06:40:21.447Z,18.10
2019-01-31T06:42:50.166Z,18.30
2019-01-31T06:45:20.172Z,18.40
2019-01-31T06:47:48.444Z,18.60
2019-01-31T06:50:16.735Z,18.70
2019-01-31T06:52:45.010Z,18.80
2019-01-31T06:55:13.272Z,18.90
2019-01-31T06:57:41.701Z,18.90
2019-01-31T07:00:15.533Z,18.90
2019-01-31T07:02:43.818Z,18.80
2019-01-31T07:05:12.184Z,18.70
2019-01-31T07:07:40.821Z,18.70
2019-01-31T07:10:14.991Z,18.60
2019-01-31T07:12:43.305Z,18.60
2019-01-31T07:15:12.286Z,18.60
2019-01-31T07:17:40.916Z,18.50
2019-01-31T07:20:14.592Z,18.40
2019-01-31T07:22:42.857Z,18.40
2019-01-31T07:25:14.396Z,18.50
2019-01-31T07:27:43.008Z,18.50
2019-01-31T07:30:13.986Z,18.60
2019-01-31T07:32:42.240Z,18.70
2019-01-31T07:35:12.698Z,18.80
2019-01-31T07:37:40.968Z,18.80
2019-01-31T07:40:12.035Z,18.80
2019-01-31T07:42:40.335Z,18.80
2019-01-31T07:45:11.865Z,18.70
2019-01-31T07:47:40.131Z,18.70
2019-01-31T07:50:14.534Z,18.70
2019-01-31T07:52:42.799Z,18.60
2019-01-31T07:55:11.839Z,18.60
2019-01-31T07:57:40.242Z,18.60
2019-01-31T08:00:16.781Z,18.70
